ADDS METAR Data INFO
IDs: Format: Raw Decoded Include TAF

Data at: 0425 UTC 24 Apr 2018

KHYI 240356Z AUTO 00000KT 10SM CLR 19/12 A3005 RMK AO2 SLP169 T01890117 $
KHYI 240256Z AUTO 10003KT 10SM CLR 18/09 A3003 RMK AO2 SLP162 T01830094 53019 $
KHYI 240156Z AUTO 10003KT 10SM CLR 21/10 A3001 RMK AO2 SLP156 T02060100 $
KHYI 240056Z AUTO 17004KT 10SM CLR 24/12 A2998 RMK AO2 SLP148 T02440122 $
KHYI 232356Z AUTO 18006KT 10SM CLR 28/10 A2998 RMK AO2 SLP143 T02780100 10300 20267 56014 $
KHYI 232256Z 00000KT 10SM CLR 29/08 A2998 RMK AO2 SLP144 T02890083 $
KHYI 232156Z 33007KT 310V010 10SM CLR 30/09 A2999 RMK AO2 SLP148 T03000089 $
KHYI 232056Z VRB04KT 10SM CLR 29/09 A3002 RMK AO2 SLP157 T02890089 58030 $
KHYI 231956Z 27004KT 10SM CLR 29/09 A3006 RMK AO2 SLP170 T02940094 $
KHYI 231856Z VRB04KT 10SM CLR 27/09 A3008 RMK AO2 SLP179 T02720089 $
KHYI 231756Z 36008KT 10SM CLR 27/09 A3011 RMK AO2 SLP188 T02670089 10267 20106 58013 $
KHYI 231656Z VRB03KT 10SM CLR 24/08 A3013 RMK AO2 SLP194 T02440083 $
KHYI 231556Z 33006KT 10SM CLR 23/08 A3014 RMK AO2 SLP199 T02330078 $
KHYI 231456Z VRB03KT 10SM CLR 21/09 A3015 RMK AO2 SLP200 T02110094 51015 $
KHYI 231356Z 26004KT 10SM CLR 14/09 A3014 RMK AO2 SLP203 T01390089 $
KHYI 231256Z 33004KT 10SM CLR 11/08 A3013 RMK AO2 SLP197 T01110078 $
KHYI 231156Z 33007KT 10SM CLR 11/07 A3010 RMK AO2 SLP187 T01060072 10139 20089 53012 $
KHYI 231056Z AUTO 32006KT 10SM CLR 09/07 A3009 RMK AO2 SLP182 T00890067 $
KHYI 230956Z AUTO 31006KT 10SM CLR 09/07 A3007 RMK AO2 SLP176 T00940067 TSNO $
KHYI 230856Z AUTO 32006KT 10SM CLR 09/07 A3006 RMK AO2 SLP175 T00940072 58006 $
KHYI 230756Z AUTO 33005KT 10SM CLR 10/08 A3007 RMK AO2 SLP178 T01000078 $
KHYI 230656Z AUTO 31004KT 10SM CLR 12/08 A3009 RMK AO2 SLP183 T01170078 $
KHYI 230556Z AUTO 34004KT 10SM CLR 13/08 A3008 RMK AO2 SLP181 T01330078 10250 20133 402670100 53011 $
KHYI 230456Z AUTO 32003KT 10SM CLR 15/08 A3006 RMK AO2 SLP175 T01500083 $
KHYI 230356Z AUTO 05004KT 10SM CLR 18/08 A3005 RMK AO2 SLP169 T01780083 $
KHYI 230256Z AUTO 05007KT 10SM CLR 17/08 A3005 RMK AO2 SLP170 T01720078 51017 $
KHYI 230156Z AUTO 07005KT 10SM CLR 18/07 A3004 RMK AO2 SLP166 T01830072 $
KHYI 230056Z AUTO 06008KT 10SM CLR 22/09 A3002 RMK AO2 SLP159 T02170089 $
KHYI 222356Z AUTO 36010KT 10SM CLR 25/07 A3000 RMK AO2 SLP152 T02500072 10267 20217 56011 $
KHYI 222256Z 35010KT 10SM CLR 26/08 A3000 RMK AO2 SLP151 T02560078 $
KHYI 222156Z 36006KT 10SM CLR 26/08 A3001 RMK AO2 SLP155 T02610083 $
KHYI 222056Z 35006G14KT 10SM CLR 26/09 A3003 RMK AO2 SLP161 T02560089 58027 $
KHYI 221956Z 35006G15KT 10SM CLR 24/09 A3006 RMK AO2 SLP172 T02440089 $
KHYI 221856Z 02006KT 10SM CLR 23/09 A3009 RMK AO2 SLP180 T02330094 $
KHYI 221756Z 36011KT 10SM CLR 22/09 A3011 RMK AO2 SLP188 T02170094 10217 20106 58011 $
KHYI 221656Z 35012KT 10SM CLR 21/10 A3014 RMK AO2 SLP198 T02060100 $